Time;durP1;ratioP1;P1;durP2;ratioP2;P2;SDS_P1;SDS_P2;PMS_P1;PMS_P2;Temp;Humidity;BMP_temperature;BMP_pressure;BME280_temperature;BME280_humidity;BME280_pressure;Samples;Min_cycle;Max_cycle;Signal;HPM_P1;HPM_P2
2024/03/17 00:00:23;;;;;;;0.55;0.50;;;7.30;75.00;;;;;;5083225;28;20024;-63
2024/03/17 00:02:49;;;;;;;2.28;1.05;;;7.30;75.00;;;;;;5088970;28;20513;-63
2024/03/17 00:05:18;;;;;;;0.65;0.50;;;7.30;75.10;;;;;;5089596;28;20027;-63
2024/03/17 00:07:44;;;;;;;1.17;0.63;;;7.30;75.10;;;;;;5091601;28;20105;-63
2024/03/17 00:10:11;;;;;;;0.70;0.70;;;7.30;75.20;;;;;;5084975;28;20067;-64
2024/03/17 00:12:37;;;;;;;1.00;0.90;;;7.30;75.30;;;;;;5089409;28;20036;-64
2024/03/17 00:15:05;;;;;;;6.68;1.00;;;7.30;75.20;;;;;;5088380;28;20032;-64
2024/03/17 00:17:31;;;;;;;1.35;1.10;;;7.30;75.30;;;;;;5082941;28;20725;-64
2024/03/17 00:19:57;;;;;;;4.22;1.05;;;7.30;75.30;;;;;;5081995;28;20041;-64
2024/03/17 00:22:23;;;;;;;1.98;0.90;;;7.30;75.30;;;;;;5089724;28;20384;-63
2024/03/17 00:24:49;;;;;;;1.20;1.08;;;7.30;75.30;;;;;;5088829;28;20036;-63
2024/03/17 00:27:14;;;;;;;2.13;1.27;;;7.30;75.30;;;;;;5085861;28;20020;-63
2024/03/17 00:29:40;;;;;;;2.28;0.80;;;7.30;75.40;;;;;;5085027;28;20395;-63
2024/03/17 00:32:07;;;;;;;1.00;0.90;;;7.30;75.50;;;;;;5082860;28;20088;-63
2024/03/17 00:34:33;;;;;;;1.85;0.93;;;7.30;75.50;;;;;;5088030;28;20036;-63
2024/03/17 00:37:02;;;;;;;2.28;1.20;;;7.30;75.60;;;;;;5087913;28;20035;-63
2024/03/17 00:39:28;;;;;;;1.35;1.08;;;7.30;75.60;;;;;;5081427;28;20051;-63
2024/03/17 00:41:54;;;;;;;4.70;1.83;;;7.30;75.70;;;;;;5081496;28;20362;-63
2024/03/17 00:44:20;;;;;;;1.40;1.30;;;7.30;75.70;;;;;;5071579;28;20384;-63
2024/03/17 00:46:46;;;;;;;2.67;1.92;;;7.30;75.80;;;;;;5087459;28;20066;-64
2024/03/17 00:49:13;;;;;;;7.15;1.65;;;7.30;75.80;;;;;;5081116;28;20029;-63
2024/03/17 00:51:39;;;;;;;2.90;1.05;;;7.30;75.90;;;;;;5083979;28;20110;-63
2024/03/17 00:54:05;;;;;;;2.22;1.48;;;7.30;76.00;;;;;;5078717;28;20120;-63
2024/03/17 00:56:30;;;;;;;3.47;1.98;;;7.30;76.00;;;;;;5083635;28;20086;-63
2024/03/17 00:58:57;;;;;;;2.65;0.90;;;7.30;76.10;;;;;;5091015;28;20036;-63
2024/03/17 01:01:23;;;;;;;2.90;1.85;;;7.30;76.10;;;;;;5088669;28;20032;-63
2024/03/17 01:03:50;;;;;;;3.40;1.40;;;7.30;76.10;;;;;;5091614;28;20507;-63
2024/03/17 01:06:16;;;;;;;2.10;1.42;;;7.30;76.10;;;;;;5087671;28;20021;-63
2024/03/17 01:08:43;;;;;;;2.22;1.27;;;7.20;76.10;;;;;;5089959;28;20031;-63
2024/03/17 01:11:16;;;;;;;2.63;1.30;;;7.30;76.20;;;;;;5089639;28;20031;-64
2024/03/17 01:13:42;;;;;;;1.45;1.30;;;7.30;76.30;;;;;;5085504;28;20119;-64
2024/03/17 01:16:08;;;;;;;1.75;1.42;;;7.30;76.30;;;;;;5089714;28;20114;-63
2024/03/17 01:18:37;;;;;;;4.72;1.67;;;7.30;76.30;;;;;;5089368;28;20107;-63
2024/03/17 01:21:03;;;;;;;2.42;1.45;;;7.30;76.30;;;;;;5087480;28;20126;-63
2024/03/17 01:23:29;;;;;;;2.00;1.05;;;7.30;76.30;;;;;;5080062;28;20021;-62
2024/03/17 01:25:55;;;;;;;2.17;1.73;;;7.30;76.30;;;;;;5074094;28;20478;-62
2024/03/17 01:28:21;;;;;;;1.88;1.38;;;7.30;76.40;;;;;;5082730;28;20020;-62
2024/03/17 01:30:48;;;;;;;2.97;1.60;;;7.20;76.30;;;;;;5082721;28;20028;-63
2024/03/17 01:33:14;;;;;;;2.25;1.05;;;7.20;76.50;;;;;;5083872;28;20141;-63
2024/03/17 01:35:40;;;;;;;6.97;1.30;;;7.20;76.50;;;;;;5080426;28;20032;-63
2024/03/17 01:38:06;;;;;;;1.45;1.20;;;7.20;76.50;;;;;;5082552;28;20033;-62
2024/03/17 01:40:32;;;;;;;3.28;1.60;;;7.20;76.60;;;;;;5083612;28;20071;-62
2024/03/17 01:42:58;;;;;;;2.03;1.70;;;7.20;76.60;;;;;;5086155;28;20055;-62
2024/03/17 01:45:31;;;;;;;2.28;1.73;;;7.10;76.60;;;;;;5082486;28;20032;-63
2024/03/17 01:48:00;;;;;;;1.60;1.33;;;7.10;76.70;;;;;;5084014;28;20020;-63
2024/03/17 01:50:35;;;;;;;1.85;1.35;;;7.10;76.70;;;;;;5078058;28;20047;-63
2024/03/17 01:53:04;;;;;;;2.95;1.40;;;7.10;76.80;;;;;;5085573;28;20031;-63
2024/03/17 01:55:36;;;;;;;3.08;1.25;;;7.10;76.80;;;;;;5081081;28;20043;-63
2024/03/17 01:58:07;;;;;;;2.38;1.42;;;7.10;76.80;;;;;;5082524;28;20437;-63
2024/03/17 02:00:36;;;;;;;7.50;1.95;;;7.20;76.90;;;;;;5085455;28;20062;-64
2024/03/17 02:03:04;;;;;;;4.22;1.77;;;7.10;76.80;;;;;;5082878;28;20457;-63
2024/03/17 02:05:30;;;;;;;2.97;1.73;;;7.20;77.00;;;;;;5088695;28;20032;-63
2024/03/17 02:07:56;;;;;;;1.88;1.45;;;7.20;77.00;;;;;;5085484;28;20035;-63
2024/03/17 02:10:21;;;;;;;3.25;1.65;;;7.10;77.00;;;;;;5080929;28;20036;-64
2024/03/17 02:12:48;;;;;;;2.75;1.52;;;7.20;77.10;;;;;;5079246;28;20028;-64
2024/03/17 02:15:14;;;;;;;2.28;1.30;;;7.10;77.00;;;;;;5078264;28;20059;-64
2024/03/17 02:17:40;;;;;;;1.92;1.25;;;7.10;77.10;;;;;;5083582;28;20056;-63
2024/03/17 02:20:07;;;;;;;3.40;1.65;;;7.10;77.10;;;;;;5086204;28;20062;-63
2024/03/17 02:22:36;;;;;;;2.58;1.67;;;7.10;77.10;;;;;;5083216;28;20364;-63
2024/03/17 02:25:02;;;;;;;1.58;1.15;;;7.10;77.10;;;;;;5085107;28;20149;-63
2024/03/17 02:27:28;;;;;;;3.10;1.85;;;7.10;77.10;;;;;;5087052;28;20482;-64
2024/03/17 02:29:55;;;;;;;2.15;1.38;;;7.00;77.20;;;;;;5085626;28;20119;-64
2024/03/17 02:32:26;;;;;;;1.70;1.60;;;7.00;77.20;;;;;;5079614;28;20093;-63
2024/03/17 02:34:52;;;;;;;1.77;1.10;;;7.00;77.30;;;;;;5081998;28;20029;-63
2024/03/17 02:37:18;;;;;;;2.60;1.45;;;7.00;77.40;;;;;;5086625;28;20686;-63
2024/03/17 02:39:44;;;;;;;1.42;1.25;;;7.00;77.40;;;;;;5083096;28;20038;-64
2024/03/17 02:42:11;;;;;;;4.28;2.28;;;7.00;77.40;;;;;;5076722;28;20598;-63
2024/03/17 02:44:40;;;;;;;3.13;1.38;;;7.10;77.50;;;;;;5084395;28;20032;-63
2024/03/17 02:47:09;;;;;;;2.15;1.30;;;7.10;77.50;;;;;;5081578;28;20020;-62
2024/03/17 02:49:37;;;;;;;1.40;1.15;;;7.10;77.60;;;;;;5083384;28;20093;-62
2024/03/17 02:52:10;;;;;;;3.33;1.38;;;7.20;77.60;;;;;;5084514;28;20036;-62
2024/03/17 02:54:39;;;;;;;1.48;1.13;;;7.20;77.60;;;;;;5083485;28;20028;-63
2024/03/17 02:57:09;;;;;;;1.83;1.15;;;7.20;77.70;;;;;;5079499;28;20458;-63
2024/03/17 02:59:35;;;;;;;2.53;1.70;;;7.20;77.70;;;;;;5075951;28;20040;-63
2024/03/17 03:02:01;;;;;;;4.05;1.40;;;7.30;77.70;;;;;;5081439;28;20032;-62
2024/03/17 03:04:27;;;;;;;1.42;1.25;;;7.30;77.70;;;;;;5082231;28;20081;-63
2024/03/17 03:06:54;;;;;;;5.53;2.72;;;7.30;77.70;;;;;;5086400;28;20467;-62
2024/03/17 03:09:31;;;;;;;2.30;1.73;;;7.40;77.70;;;;;;5081477;28;20375;-62
2024/03/17 03:12:01;;;;;;;2.40;1.50;;;7.40;77.80;;;;;;5079275;28;20040;-62
2024/03/17 03:14:27;;;;;;;1.92;1.45;;;7.40;77.80;;;;;;5079827;28;20032;-62
2024/03/17 03:16:53;;;;;;;5.88;1.38;;;7.40;77.80;;;;;;5080644;28;20144;-63
2024/03/17 03:19:19;;;;;;;2.33;1.20;;;7.40;77.80;;;;;;5080008;28;20067;-63
2024/03/17 03:21:45;;;;;;;3.40;2.03;;;7.40;78.40;;;;;;5081637;28;20122;-62
2024/03/17 03:24:14;;;;;;;1.92;1.55;;;7.40;77.90;;;;;;5087122;28;20421;-63
2024/03/17 03:26:40;;;;;;;4.60;2.65;;;7.40;77.90;;;;;;5077530;28;20411;-63
2024/03/17 03:29:05;;;;;;;6.05;2.00;;;7.50;78.00;;;;;;5088440;28;20028;-63
2024/03/17 03:31:32;;;;;;;3.85;1.67;;;7.50;78.00;;;;;;5087677;28;20043;-63
2024/03/17 03:34:01;;;;;;;2.92;1.63;;;7.50;78.00;;;;;;5087800;28;20036;-62
2024/03/17 03:36:28;;;;;;;1.30;1.10;;;7.50;78.00;;;;;;5076284;28;20089;-63
2024/03/17 03:38:54;;;;;;;4.68;2.28;;;7.60;78.00;;;;;;5086044;28;20036;-62
2024/03/17 03:41:22;;;;;;;2.33;1.70;;;7.60;78.00;;;;;;5081973;28;20021;-62
2024/03/17 03:43:49;;;;;;;3.33;2.10;;;7.60;78.00;;;;;;5079404;28;20021;-62
2024/03/17 03:46:15;;;;;;;2.10;1.60;;;7.70;78.00;;;;;;5085374;28;20059;-62
2024/03/17 03:48:41;;;;;;;4.32;2.10;;;7.70;78.00;;;;;;5080131;28;20119;-62
2024/03/17 03:51:08;;;;;;;2.40;1.55;;;7.70;78.10;;;;;;5081777;28;20047;-62
2024/03/17 03:53:34;;;;;;;3.28;2.13;;;7.70;78.10;;;;;;5085747;28;20032;-63
2024/03/17 03:56:05;;;;;;;3.00;1.55;;;7.80;78.20;;;;;;5085644;28;20036;-62
2024/03/17 03:58:35;;;;;;;3.07;1.83;;;7.80;78.20;;;;;;5081789;28;20036;-63
2024/03/17 04:01:07;;;;;;;3.55;1.65;;;7.80;78.20;;;;;;5079479;28;20520;-63
2024/03/17 04:03:37;;;;;;;2.53;1.33;;;7.90;78.20;;;;;;5087125;28;20031;-63
2024/03/17 04:06:08;;;;;;;4.57;2.40;;;7.90;78.30;;;;;;5085559;28;20020;-63
2024/03/17 04:08:35;;;;;;;3.83;2.30;;;7.90;78.20;;;;;;5082117;28;20032;-63
2024/03/17 04:11:02;;;;;;;4.30;1.40;;;7.90;78.80;;;;;;5086806;28;20032;-63
2024/03/17 04:13:29;;;;;;;2.72;2.17;;;7.90;78.30;;;;;;5086173;28;20036;-63
2024/03/17 04:15:59;;;;;;;3.33;1.77;;;8.00;78.30;;;;;;5086332;28;20085;-63
2024/03/17 04:18:30;;;;;;;3.67;2.10;;;8.00;78.40;;;;;;5089381;28;20028;-63
2024/03/17 04:20:57;;;;;;;2.80;1.60;;;8.00;78.40;;;;;;5091351;28;20045;-63
2024/03/17 04:23:23;;;;;;;5.13;2.15;;;8.00;78.30;;;;;;5088345;28;20017;-63
2024/03/17 04:25:51;;;;;;;4.68;2.53;;;8.10;78.30;;;;;;5083191;28;20037;-63
2024/03/17 04:28:17;;;;;;;4.15;1.95;;;8.10;78.30;;;;;;5085400;28;20021;-63
2024/03/17 04:30:43;;;;;;;2.33;1.55;;;8.10;78.30;;;;;;5091546;28;20119;-63
2024/03/17 04:33:13;;;;;;;3.28;2.10;;;8.10;78.30;;;;;;5083982;28;20161;-63
2024/03/17 04:35:39;;;;;;;3.67;1.85;;;8.10;78.30;;;;;;5088482;28;20043;-63
2024/03/17 04:38:06;;;;;;;2.28;1.75;;;8.20;78.40;;;;;;5087768;28;20038;-63
2024/03/17 04:40:33;;;;;;;4.35;2.15;;;8.20;78.40;;;;;;5081820;28;20039;-62
2024/03/17 04:42:59;;;;;;;2.90;1.70;;;8.20;78.40;;;;;;5086291;28;20024;-62
2024/03/17 04:45:26;;;;;;;3.17;1.83;;;8.20;78.40;;;;;;5079288;28;20497;-62
2024/03/17 04:47:52;;;;;;;3.65;2.53;;;8.20;78.50;;;;;;5085283;28;20042;-62
2024/03/17 04:50:18;;;;;;;2.80;1.92;;;8.20;78.50;;;;;;5067684;28;20036;-63
2024/03/17 04:52:45;;;;;;;2.67;2.08;;;8.20;78.50;;;;;;5086029;28;20048;-63
2024/03/17 04:55:10;;;;;;;6.60;2.03;;;8.30;78.50;;;;;;5081205;28;20367;-62
2024/03/17 04:57:37;;;;;;;2.88;1.83;;;8.20;78.50;;;;;;5083466;28;20036;-62
2024/03/17 05:00:07;;;;;;;5.38;2.45;;;8.20;78.50;;;;;;5074519;28;20464;-62
2024/03/17 05:02:33;;;;;;;3.67;1.80;;;8.20;78.40;;;;;;5084719;28;20025;-61
2024/03/17 05:04:59;;;;;;;2.55;1.65;;;8.30;78.50;;;;;;5084151;28;20028;-62
2024/03/17 05:07:25;;;;;;;5.53;2.75;;;8.20;78.50;;;;;;5082181;28;20028;-62
2024/03/17 05:09:51;;;;;;;2.60;1.95;;;8.20;78.50;;;;;;5078946;28;20052;-62
2024/03/17 05:12:17;;;;;;;3.55;1.90;;;8.20;78.60;;;;;;5082595;28;20036;-62
2024/03/17 05:14:43;;;;;;;8.77;2.55;;;8.20;78.60;;;;;;5083130;28;20507;-63
2024/03/17 05:17:09;;;;;;;4.05;2.30;;;8.20;78.70;;;;;;5079966;28;20107;-63
2024/03/17 05:19:36;;;;;;;2.92;1.90;;;8.20;78.70;;;;;;5083140;28;20114;-62
2024/03/17 05:22:02;;;;;;;4.80;2.30;;;8.20;78.70;;;;;;5081039;28;20024;-62
2024/03/17 05:24:28;;;;;;;3.28;2.00;;;8.20;78.70;;;;;;5084521;28;20127;-62
2024/03/17 05:26:54;;;;;;;3.60;2.45;;;8.20;78.80;;;;;;5080935;28;20115;-62
2024/03/17 05:29:19;;;;;;;2.90;1.70;;;8.20;78.80;;;;;;5083352;28;20762;-62
2024/03/17 05:31:47;;;;;;;2.72;2.08;;;8.20;78.80;;;;;;5083872;28;20051;-62
2024/03/17 05:34:13;;;;;;;3.25;1.83;;;8.20;78.80;;;;;;5077914;28;20028;-62
2024/03/17 05:36:39;;;;;;;2.88;1.95;;;8.20;78.80;;;;;;5081614;28;20034;-63
2024/03/17 05:39:05;;;;;;;3.47;2.13;;;8.20;78.80;;;;;;5086444;28;20029;-63
2024/03/17 05:41:31;;;;;;;3.40;1.88;;;8.20;78.80;;;;;;5081124;28;20040;-63
2024/03/17 05:44:03;;;;;;;4.20;2.70;;;8.20;78.80;;;;;;5082642;28;20028;-62
2024/03/17 05:46:29;;;;;;;10.07;3.35;;;8.20;78.80;;;;;;5084564;28;20032;-63
2024/03/17 05:48:56;;;;;;;2.83;1.70;;;8.20;78.80;;;;;;5083975;28;20463;-63
2024/03/17 05:51:25;;;;;;;2.95;1.92;;;8.20;78.90;;;;;;5087872;28;20028;-63
2024/03/17 05:53:51;;;;;;;3.80;2.60;;;8.20;78.90;;;;;;5086876;28;20031;-63
2024/03/17 05:56:17;;;;;;;3.08;1.77;;;8.20;78.90;;;;;;5088941;28;20033;-63
2024/03/17 05:58:43;;;;;;;3.72;2.28;;;8.10;78.90;;;;;;5083070;28;20102;-62
2024/03/17 06:01:09;;;;;;;4.60;1.92;;;8.10;78.90;;;;;;5075715;28;20041;-62
2024/03/17 06:03:38;;;;;;;3.50;2.05;;;8.10;79.00;;;;;;5075342;28;20032;-62
2024/03/17 06:06:04;;;;;;;3.58;2.53;;;8.10;79.00;;;;;;5086225;28;20320;-62
2024/03/17 06:08:30;;;;;;;6.05;2.30;;;8.10;79.10;;;;;;5090075;28;20032;-63
2024/03/17 06:11:00;;;;;;;4.65;2.72;;;8.10;79.20;;;;;;5068035;28;20028;-62
2024/03/17 06:13:26;;;;;;;5.93;2.33;;;8.10;79.20;;;;;;5089809;28;20040;-63
2024/03/17 06:15:52;;;;;;;3.75;2.08;;;8.10;79.20;;;;;;5077707;28;20052;-63
2024/03/17 06:18:18;;;;;;;3.20;2.20;;;8.10;79.20;;;;;;5081991;28;20051;-62
2024/03/17 06:20:47;;;;;;;3.70;2.63;;;8.10;79.20;;;;;;5087203;28;20053;-62
2024/03/17 06:23:14;;;;;;;5.22;2.90;;;8.20;79.30;;;;;;5075671;28;20032;-65
2024/03/17 06:25:47;;;;;;;5.13;2.53;;;8.20;79.20;;;;;;5081262;28;20405;-63
2024/03/17 06:28:16;;;;;;;3.70;2.35;;;8.20;79.20;;;;;;5084892;28;20440;-63
2024/03/17 06:30:43;;;;;;;3.63;1.90;;;8.20;79.20;;;;;;5085998;28;20036;-63
2024/03/17 06:33:13;;;;;;;5.25;3.17;;;8.20;79.10;;;;;;5084468;28;20033;-63
2024/03/17 06:35:39;;;;;;;4.55;2.35;;;8.30;79.20;;;;;;5079796;28;20025;-64
2024/03/17 06:38:09;;;;;;;5.32;2.28;;;8.30;79.10;;;;;;5083373;28;20495;-63
2024/03/17 06:40:35;;;;;;;4.20;2.60;;;8.40;79.10;;;;;;5085096;28;20103;-63
2024/03/17 06:43:01;;;;;;;4.75;2.97;;;8.50;79.10;;;;;;5084269;28;20035;-63
2024/03/17 06:45:27;;;;;;;4.63;2.78;;;8.60;79.10;;;;;;5082201;28;20501;-63
2024/03/17 06:47:52;;;;;;;6.03;3.13;;;8.60;79.10;;;;;;5067844;28;20020;-62
2024/03/17 06:50:18;;;;;;;3.45;2.22;;;8.70;79.10;;;;;;5082358;28;20558;-63
2024/03/17 06:52:44;;;;;;;5.38;2.70;;;8.80;79.00;;;;;;5088468;28;20039;-63
2024/03/17 06:55:09;;;;;;;5.90;2.85;;;8.90;79.00;;;;;;5083299;28;20074;-63
2024/03/17 06:57:35;;;;;;;3.38;2.10;;;8.90;78.90;;;;;;5087167;28;20028;-64
2024/03/17 07:00:05;;;;;;;3.60;2.10;;;9.00;78.80;;;;;;5084617;28;20055;-62
2024/03/17 07:02:34;;;;;;;4.18;2.75;;;9.10;78.90;;;;;;5083319;28;20454;-62
2024/03/17 07:04:59;;;;;;;6.32;2.83;;;9.10;78.80;;;;;;5084809;28;20075;-62
2024/03/17 07:07:28;;;;;;;4.95;2.40;;;9.20;78.90;;;;;;5081618;28;20491;-63
2024/03/17 07:09:54;;;;;;;4.43;2.92;;;9.30;78.80;;;;;;5088712;28;20134;-63
2024/03/17 07:12:20;;;;;;;5.50;2.75;;;9.40;78.60;;;;;;5086313;28;20390;-63
2024/03/17 07:14:46;;;;;;;4.38;2.65;;;9.40;78.40;;;;;;5087188;28;20028;-63
2024/03/17 07:17:11;;;;;;;4.57;2.55;;;9.50;78.30;;;;;;5084012;28;20031;-63
2024/03/17 07:19:37;;;;;;;3.10;2.47;;;9.50;78.40;;;;;;5084529;28;20503;-63
2024/03/17 07:22:03;;;;;;;5.22;2.47;;;9.60;78.40;;;;;;5085925;28;20119;-63
2024/03/17 07:24:30;;;;;;;3.63;2.30;;;9.60;78.30;;;;;;5083622;28;20446;-64
2024/03/17 07:26:55;;;;;;;3.33;2.13;;;9.70;78.30;;;;;;5087650;28;20644;-63
2024/03/17 07:29:21;;;;;;;4.25;2.05;;;9.70;78.30;;;;;;5086082;28;20112;-63
2024/03/17 07:31:46;;;;;;;4.93;2.55;;;9.70;78.20;;;;;;5071033;28;20085;-63
2024/03/17 07:34:12;;;;;;;4.28;2.13;;;9.70;78.20;;;;;;5077316;28;20054;-63
2024/03/17 07:36:39;;;;;;;3.78;2.47;;;9.80;78.10;;;;;;5083737;28;20475;-64
2024/03/17 07:39:07;;;;;;;2.90;1.77;;;9.80;78.10;;;;;;5079012;28;20041;-63
2024/03/17 07:41:33;;;;;;;8.20;2.53;;;9.90;78.10;;;;;;5081045;28;20040;-63
2024/03/17 07:43:58;;;;;;;5.15;2.33;;;10.00;78.00;;;;;;5083180;28;20024;-64
2024/03/17 07:46:24;;;;;;;5.90;2.97;;;10.00;78.50;;;;;;5080889;28;20035;-63
2024/03/17 07:48:51;;;;;;;2.72;1.92;;;10.10;77.90;;;;;;5085762;28;20560;-63
2024/03/17 07:51:17;;;;;;;4.05;2.38;;;10.10;77.90;;;;;;5085019;28;20123;-63
2024/03/17 07:53:45;;;;;;;5.00;2.75;;;10.30;77.80;;;;;;5083223;28;20031;-63
2024/03/17 07:56:12;;;;;;;4.40;2.53;;;10.40;77.60;;;;;;5091646;28;20446;-63
2024/03/17 07:58:39;;;;;;;5.43;2.50;;;10.50;77.40;;;;;;5088887;28;20107;-63
2024/03/17 08:01:08;;;;;;;4.15;2.50;;;10.60;77.30;;;;;;5088845;28;20486;-63
2024/03/17 08:03:36;;;;;;;4.03;2.30;;;10.70;77.20;;;;;;5089578;28;20551;-63
2024/03/17 08:06:04;;;;;;;4.57;2.47;;;10.80;77.00;;;;;;5080470;28;20131;-62
2024/03/17 08:08:30;;;;;;;5.00;2.35;;;10.90;76.80;;;;;;5086193;28;20097;-62
2024/03/17 08:10:56;;;;;;;4.43;2.40;;;11.00;76.70;;;;;;5084329;28;20386;-63
2024/03/17 08:13:23;;;;;;;5.47;2.00;;;11.10;76.60;;;;;;5091935;28;20021;-63
2024/03/17 08:15:59;;;;;;;4.00;2.33;;;11.10;76.50;;;;;;5086096;28;20066;-64
2024/03/17 08:18:26;;;;;;;5.32;2.50;;;11.20;76.40;;;;;;5089095;28;20020;-62
2024/03/17 08:20:54;;;;;;;4.30;2.55;;;11.30;76.20;;;;;;5085679;28;20068;-65
2024/03/17 08:23:20;;;;;;;4.60;1.83;;;11.40;76.10;;;;;;5072587;28;20047;-63
2024/03/17 08:26:00;;;;;;;2.85;2.03;;;11.40;76.00;;;;;;5087361;28;20455;-63
2024/03/17 08:28:27;;;;;;;5.18;1.98;;;11.60;76.00;;;;;;5083970;28;20478;-63
2024/03/17 08:31:00;;;;;;;4.10;1.88;;;11.60;76.00;;;;;;5090140;28;20016;-62
2024/03/17 08:33:27;;;;;;;3.35;1.77;;;11.70;75.70;;;;;;5086991;28;20063;-62
2024/03/17 08:36:16;;;;;;;2.42;1.85;;;11.80;75.50;;;;;;5087732;28;20016;-63
2024/03/17 08:38:42;;;;;;;4.20;1.92;;;11.90;75.30;;;;;;5084342;28;20056;-63
2024/03/17 08:41:10;;;;;;;4.00;2.10;;;12.00;75.30;;;;;;5089577;28;20575;-62
2024/03/17 08:43:37;;;;;;;7.03;1.67;;;12.00;75.10;;;;;;5087588;28;20032;-64
2024/03/17 08:46:05;;;;;;;4.43;1.67;;;12.10;75.20;;;;;;5090315;28;20027;-65
2024/03/17 08:48:32;;;;;;;3.53;1.92;;;12.10;75.00;;;;;;5086843;28;20329;-64
2024/03/17 08:50:59;;;;;;;8.90;3.13;;;12.20;74.90;;;;;;5080899;28;20103;-65
2024/03/17 08:53:26;;;;;;;2.40;1.63;;;12.20;74.50;;;;;;5085536;28;20051;-64
2024/03/17 08:55:52;;;;;;;2.50;1.67;;;12.20;74.30;;;;;;5078492;28;20274;-66
2024/03/17 08:58:18;;;;;;;2.38;1.52;;;12.20;74.10;;;;;;5083720;28;20172;-66
2024/03/17 09:00:44;;;;;;;2.33;1.20;;;12.20;74.20;;;;;;5078712;28;20028;-65
2024/03/17 09:03:10;;;;;;;3.83;1.23;;;12.10;74.10;;;;;;5085392;28;20376;-64
2024/03/17 09:05:36;;;;;;;2.55;1.48;;;12.10;74.10;;;;;;5087071;28;20012;-64
2024/03/17 09:08:02;;;;;;;3.95;2.65;;;12.20;74.10;;;;;;5076322;28;20024;-64
2024/03/17 09:10:28;;;;;;;2.35;1.35;;;12.20;74.00;;;;;;5081493;28;20036;-64
2024/03/17 09:12:54;;;;;;;2.58;1.33;;;12.30;74.00;;;;;;5071834;28;20044;-65
2024/03/17 09:15:20;;;;;;;2.15;1.52;;;12.30;73.90;;;;;;5076750;28;20028;-64
2024/03/17 09:17:46;;;;;;;2.45;1.60;;;12.40;74.60;;;;;;5068528;28;20089;-64
2024/03/17 09:20:14;;;;;;;2.97;1.40;;;12.40;74.00;;;;;;5071441;28;20052;-64
2024/03/17 09:22:41;;;;;;;3.13;1.60;;;12.40;73.90;;;;;;5083027;28;20037;-64
2024/03/17 09:25:08;;;;;;;3.95;2.25;;;12.50;73.80;;;;;;5073148;28;20240;-64
2024/03/17 09:27:36;;;;;;;4.13;1.92;;;12.60;73.80;;;;;;5073694;28;20111;-64
2024/03/17 09:30:09;;;;;;;4.90;1.90;;;12.60;73.80;;;;;;5075290;28;20020;-64
2024/03/17 09:32:35;;;;;;;6.95;3.75;;;12.60;73.80;;;;;;5078543;28;20036;-65
2024/03/17 09:35:00;;;;;;;2.92;1.75;;;12.60;73.80;;;;;;5079766;28;20028;-64
2024/03/17 09:37:27;;;;;;;7.57;4.40;;;12.70;73.70;;;;;;5074789;28;20082;-65
2024/03/17 09:39:53;;;;;;;10.32;2.90;;;12.70;73.60;;;;;;5080085;28;20060;-64
2024/03/17 09:42:19;;;;;;;3.28;2.65;;;12.70;73.70;;;;;;5081773;28;20078;-65
2024/03/17 09:44:49;;;;;;;5.70;2.40;;;12.60;73.70;;;;;;5079934;28;20036;-64
2024/03/17 09:47:22;;;;;;;2.45;1.75;;;12.60;73.80;;;;;;5087689;28;20024;-64
2024/03/17 09:49:48;;;;;;;5.35;1.67;;;12.60;73.80;;;;;;5086921;28;20028;-65
2024/03/17 09:52:22;;;;;;;3.97;1.77;;;12.50;73.80;;;;;;5085191;28;20024;-65
2024/03/17 09:54:53;;;;;;;2.42;1.90;;;12.50;73.80;;;;;;5083594;28;20024;-65
2024/03/17 09:57:21;;;;;;;3.03;1.95;;;12.50;73.80;;;;;;5086651;28;20098;-64
2024/03/17 09:59:54;;;;;;;2.28;1.63;;;12.50;73.80;;;;;;5090032;28;20036;-64
2024/03/17 10:02:19;;;;;;;4.05;1.88;;;12.50;73.80;;;;;;5077504;28;20034;-64
2024/03/17 10:04:46;;;;;;;3.55;2.00;;;12.60;73.80;;;;;;5085082;28;20050;-64
2024/03/17 10:07:11;;;;;;;2.78;1.83;;;12.60;74.20;;;;;;5086649;28;20381;-65
2024/03/17 10:09:37;;;;;;;3.60;2.33;;;12.70;73.50;;;;;;5071251;28;20062;-65
2024/03/17 10:12:04;;;;;;;2.35;1.50;;;12.70;73.30;;;;;;5080345;28;20032;-64
2024/03/17 10:14:30;;;;;;;5.03;2.55;;;12.70;73.20;;;;;;5081759;28;20142;-65
2024/03/17 10:16:56;;;;;;;4.07;2.53;;;12.70;72.80;;;;;;5084017;28;20114;-65
2024/03/17 10:19:27;;;;;;;6.20;2.42;;;12.70;72.40;;;;;;5085174;28;20052;-64
2024/03/17 10:22:00;;;;;;;4.47;1.75;;;12.80;72.50;;;;;;5083755;28;20028;-64
2024/03/17 10:24:31;;;;;;;2.72;1.65;;;12.80;72.40;;;;;;5085423;28;20483;-64
2024/03/17 10:26:58;;;;;;;3.20;1.55;;;12.90;72.30;;;;;;5077024;28;20471;-64
2024/03/17 10:29:27;;;;;;;2.00;1.50;;;13.00;72.20;;;;;;5085582;28;20024;-64
2024/03/17 10:32:03;;;;;;;4.60;2.58;;;13.10;71.90;;;;;;5080866;28;20036;-63
2024/03/17 10:34:36;;;;;;;3.70;2.20;;;13.30;71.60;;;;;;5079646;28;20052;-64
2024/03/17 10:37:11;;;;;;;2.75;1.95;;;13.40;71.50;;;;;;5082412;28;20030;-64
2024/03/17 10:39:38;;;;;;;2.13;1.20;;;13.50;71.20;;;;;;5075712;28;20141;-64
2024/03/17 10:42:06;;;;;;;2.95;2.17;;;13.60;70.90;;;;;;5073979;28;20706;-64
2024/03/17 10:44:34;;;;;;;3.10;1.85;;;13.80;70.50;;;;;;5081961;28;20023;-63
2024/03/17 10:47:01;;;;;;;1.73;1.27;;;13.90;70.30;;;;;;5085823;28;20032;-63
2024/03/17 10:49:34;;;;;;;3.42;2.63;;;14.00;70.20;;;;;;5086655;28;20034;-63
2024/03/17 10:52:05;;;;;;;3.92;2.30;;;14.10;69.90;;;;;;5085647;28;20032;-65
2024/03/17 10:54:31;;;;;;;3.25;1.77;;;14.20;69.80;;;;;;5086588;28;20036;-64
2024/03/17 10:57:42;;;;;;;2.38;1.25;;;14.20;69.50;;;;;;5087557;28;20052;-64
2024/03/17 11:00:08;;;;;;;3.60;1.55;;;14.30;69.20;;;;;;5083095;28;20059;-66
2024/03/17 11:02:36;;;;;;;3.05;1.75;;;14.30;69.30;;;;;;5080619;28;20127;-63
2024/03/17 11:05:16;;;;;;;3.50;2.35;;;14.40;69.20;;;;;;5079098;28;20047;-63
2024/03/17 11:07:48;;;;;;;3.72;1.60;;;14.50;68.60;;;;;;5078774;28;20035;-63
2024/03/17 11:10:20;;;;;;;9.55;2.33;;;14.50;68.50;;;;;;5080028;28;20043;-63
2024/03/17 11:12:52;;;;;;;1.73;1.27;;;14.40;68.70;;;;;;5082475;28;20024;-64
2024/03/17 11:15:26;;;;;;;2.60;1.60;;;14.40;69.00;;;;;;5079096;28;20020;-64
2024/03/17 11:17:53;;;;;;;2.80;1.90;;;14.50;69.00;;;;;;5083320;28;20169;-63
2024/03/17 11:20:28;;;;;;;2.97;1.73;;;14.50;69.20;;;;;;5084418;28;20499;-62
2024/03/17 11:22:56;;;;;;;4.72;2.22;;;14.50;69.10;;;;;;5080679;28;20025;-62
2024/03/17 11:25:30;;;;;;;3.30;1.80;;;14.40;69.20;;;;;;5091898;28;20456;-63
2024/03/17 11:27:57;;;;;;;2.70;1.48;;;14.40;69.20;;;;;;5090619;28;20344;-63
2024/03/17 11:30:43;;;;;;;3.33;1.95;;;14.30;69.30;;;;;;5085709;28;20028;-63
2024/03/17 11:33:40;;;;;;;2.15;1.60;;;14.20;69.50;;;;;;5080400;28;20442;-63
2024/03/17 11:36:24;;;;;;;2.58;1.77;;;14.20;69.70;;;;;;5091196;28;20352;-63
2024/03/17 11:39:27;;;;;;;5.43;1.95;;;14.20;69.70;;;;;;5089826;28;20045;-63
2024/03/17 11:41:53;;;;;;;;;;;14.10;69.70;;;;;;5090300;28;20036;-63
2024/03/17 11:44:23;;;;;;;2.38;1.42;;;14.10;69.80;;;;;;5090732;28;19939;-63
2024/03/17 11:46:58;;;;;;;2.35;1.80;;;14.10;69.90;;;;;;5080728;28;20512;-63
2024/03/17 11:49:25;;;;;;;2.55;1.67;;;14.10;69.70;;;;;;5079106;28;20035;-63
2024/03/17 11:51:52;;;;;;;2.53;1.73;;;14.20;69.80;;;;;;5082005;28;20038;-64
2024/03/17 11:54:23;;;;;;;4.22;1.90;;;14.30;69.80;;;;;;5084022;28;20032;-64
2024/03/17 11:56:50;;;;;;;3.55;2.30;;;14.30;69.40;;;;;;5084839;28;20339;-64
2024/03/17 11:59:17;;;;;;;2.78;1.17;;;14.30;69.40;;;;;;5083135;28;20171;-64
2024/03/17 12:01:47;;;;;;;1.90;1.50;;;14.30;69.40;;;;;;5088557;28;20024;-64
2024/03/17 12:04:18;;;;;;;2.20;1.30;;;14.40;69.50;;;;;;5090824;28;20032;-64
2024/03/17 12:06:51;;;;;;;2.08;1.48;;;14.40;69.60;;;;;;5091263;28;20035;-64
2024/03/17 12:09:21;;;;;;;2.38;1.40;;;14.40;69.40;;;;;;5089037;28;20109;-64
2024/03/17 12:12:06;;;;;;;4.25;2.13;;;14.50;69.30;;;;;;5081586;28;20056;-63
2024/03/17 12:14:32;;;;;;;6.40;2.65;;;14.50;69.00;;;;;;5087874;28;20024;-63
2024/03/17 12:17:01;;;;;;;3.60;2.10;;;14.50;69.10;;;;;;5087692;28;20087;-63
2024/03/17 12:19:27;;;;;;;6.95;1.92;;;14.50;69.20;;;;;;5084552;28;20407;-63
2024/03/17 12:21:55;;;;;;;2.53;1.67;;;14.50;69.30;;;;;;5092502;28;20032;-63
2024/03/17 12:24:24;;;;;;;4.60;2.72;;;14.40;69.30;;;;;;5093351;28;20043;-62
2024/03/17 12:26:55;;;;;;;2.78;1.77;;;14.40;69.30;;;;;;5088942;28;20024;-63
2024/03/17 12:29:29;;;;;;;3.28;1.70;;;14.40;69.50;;;;;;5091446;28;20024;-63
2024/03/17 12:31:57;;;;;;;3.95;1.55;;;14.40;69.40;;;;;;5087700;28;20506;-63
2024/03/17 12:34:26;;;;;;;5.55;1.75;;;14.30;69.30;;;;;;5092103;28;20054;-63
2024/03/17 12:36:53;;;;;;;2.80;1.42;;;14.40;69.40;;;;;;5081496;28;20432;-63
2024/03/17 12:39:28;;;;;;;3.05;1.60;;;14.50;69.40;;;;;;5072608;28;20073;-63
2024/03/17 12:42:09;;;;;;;3.38;1.30;;;14.50;69.20;;;;;;5077337;28;20198;-63
2024/03/17 12:44:49;;;;;;;4.05;2.05;;;14.60;69.10;;;;;;5079900;28;20032;-63
2024/03/17 12:47:17;;;;;;;3.85;1.45;;;14.60;69.00;;;;;;5079732;28;20036;-63
2024/03/17 12:49:55;;;;;;;3.17;1.70;;;14.70;69.00;;;;;;5084078;28;20022;-63
2024/03/17 12:52:28;;;;;;;3.47;2.15;;;14.80;68.90;;;;;;5085289;28;20020;-63
2024/03/17 13:00:31;;;;;;;2.17;1.55;;;14.80;68.70;;;;;;5087011;28;20090;-64
2024/03/17 13:00:34;;;;;;;2.28;1.27;;;14.90;68.50;;;;;;5088833;28;20064;-65